N9613C KMIA-KABY
Flight info
| Callsign | N9613C |
|---|---|
| Flight time | 3h 3m |
| Altitude | 8000 |
| Route | BNGOS LBV LAL CTY |
| Aircraft | P28A/L-SDFRY/C |
Departure
| Time | 2026-05-04 21:24 |
|---|---|
| Airport | Miami International Airport (KMIA) |
Arrival
| Time | 2026-05-05 00:27 |
|---|---|
| Airport | Southwest Georgia Regional Airport (KABY) |
| Time | Latitude | Longitude | Altitude | Speed | Heading |
|---|---|---|---|---|---|
| 2026-05-04 21:19 | 25.80597 | -80.28999 | 9 ft | 0 kts | 358° |
| 2026-05-04 21:22 | 25.80604 | -80.29008 | 9 ft | 8 kts | 266° |
| 2026-05-04 21:22 | 25.80549 | -80.29020 | 9 ft | 9 kts | 173° |
| 2026-05-04 21:22 | 25.80495 | -80.29041 | 8 ft | 8 kts | 198° |
| 2026-05-04 21:23 | 25.80447 | -80.29064 | 8 ft | 10 kts | 259° |
| 2026-05-04 21:23 | 25.80439 | -80.29142 | 9 ft | 10 kts | 242° |
| 2026-05-04 21:23 | 25.80382 | -80.29132 | 9 ft | 11 kts | 127° |
| 2026-05-04 21:23 | 25.80347 | -80.29064 | 9 ft | 10 kts | 108° |
| 2026-05-04 21:24 | 25.80340 | -80.28976 | 9 ft | 27 kts | 88° |
| 2026-05-04 21:24 | 25.80351 | -80.28711 | 9 ft | 73 kts | 88° |
| 2026-05-04 21:24 | 25.80390 | -80.28070 | 164 ft | 92 kts | 84° |
| 2026-05-04 21:24 | 25.80425 | -80.27348 | 678 ft | 86 kts | 85° |
| 2026-05-04 21:25 | 25.80489 | -80.26506 | 1437 ft | 83 kts | 73° |
| 2026-05-04 21:25 | 25.80511 | -80.26062 | 1841 ft | 92 kts | 79° |
| 2026-05-04 21:25 | 25.80530 | -80.25320 | 2578 ft | 96 kts | 82° |
| 2026-05-04 21:25 | 25.80549 | -80.24357 | 3477 ft | 94 kts | 84° |
| 2026-05-04 21:26 | 25.80554 | -80.23893 | 3906 ft | 86 kts | 83° |
| 2026-05-04 21:26 | 25.80578 | -80.23246 | 4230 ft | 84 kts | 82° |
| 2026-05-04 21:26 | 25.80584 | -80.22583 | 4430 ft | 88 kts | 83° |
| 2026-05-04 21:26 | 25.80595 | -80.21886 | 4627 ft | 90 kts | 84° |
| 2026-05-04 21:27 | 25.80605 | -80.21188 | 4820 ft | 93 kts | 84° |
| 2026-05-04 21:27 | 25.80612 | -80.20472 | 5051 ft | 94 kts | 84° |
| 2026-05-04 21:27 | 25.80624 | -80.19735 | 5274 ft | 97 kts | 85° |
| 2026-05-04 21:27 | 25.80634 | -80.18979 | 5508 ft | 99 kts | 85° |
| 2026-05-04 21:28 | 25.80641 | -80.18200 | 5711 ft | 102 kts | 85° |
| 2026-05-04 21:28 | 25.80826 | -80.17470 | 5885 ft | 99 kts | 47° |
| 2026-05-04 21:28 | 25.81410 | -80.17144 | 6097 ft | 92 kts | 354° |
| 2026-05-04 21:28 | 25.82010 | -80.17303 | 6298 ft | 87 kts | 325° |
| 2026-05-04 21:29 | 25.82422 | -80.17754 | 6478 ft | 82 kts | 297° |
| 2026-05-04 21:29 | 25.82757 | -80.18275 | 6633 ft | 84 kts | 302° |
| 2026-05-04 21:29 | 25.83117 | -80.18777 | 6771 ft | 84 kts | 302° |
| 2026-05-04 21:29 | 25.83480 | -80.19287 | 6894 ft | 84 kts | 302° |
| 2026-05-04 21:30 | 25.83850 | -80.19779 | 7067 ft | 81 kts | 304° |
| 2026-05-04 21:30 | 25.84209 | -80.20263 | 7249 ft | 82 kts | 302° |
| 2026-05-04 21:30 | 25.84580 | -80.20753 | 7446 ft | 84 kts | 303° |
| 2026-05-04 21:30 | 25.84964 | -80.21256 | 7687 ft | 86 kts | 299° |
| 2026-05-04 21:31 | 25.85800 | -80.22355 | 7972 ft | 111 kts | 304° |
| 2026-05-04 21:31 | 25.86351 | -80.23052 | 7975 ft | 128 kts | 306° |
| 2026-05-04 21:31 | 25.86946 | -80.23824 | 7969 ft | 135 kts | 306° |
| 2026-05-04 21:32 | 25.87565 | -80.24625 | 7964 ft | 138 kts | 306° |
| 2026-05-04 21:32 | 25.88187 | -80.25434 | 7966 ft | 137 kts | 306° |
| 2026-05-04 21:32 | 25.88806 | -80.26239 | 7964 ft | 136 kts | 306° |
| 2026-05-04 21:32 | 25.89409 | -80.27028 | 7964 ft | 134 kts | 306° |
| 2026-05-04 21:33 | 25.90013 | -80.27818 | 7965 ft | 133 kts | 306° |
| 2026-05-04 21:33 | 25.90612 | -80.28598 | 7962 ft | 133 kts | 306° |
| 2026-05-04 21:33 | 25.91216 | -80.29386 | 7965 ft | 133 kts | 306° |
| 2026-05-04 21:33 | 25.91813 | -80.30169 | 7966 ft | 136 kts | 306° |
| 2026-05-04 21:34 | 25.92432 | -80.30976 | 7965 ft | 138 kts | 306° |
| 2026-05-04 21:34 | 25.93059 | -80.31794 | 7966 ft | 139 kts | 306° |
| 2026-05-04 21:34 | 25.93681 | -80.32606 | 7967 ft | 139 kts | 306° |
| 2026-05-04 21:34 | 25.94315 | -80.33433 | 7963 ft | 141 kts | 304° |
| 2026-05-04 21:35 | 25.94953 | -80.34269 | 7966 ft | 144 kts | 306° |
| 2026-05-04 21:35 | 25.95607 | -80.35123 | 7963 ft | 144 kts | 306° |
| 2026-05-04 21:35 | 25.96247 | -80.35958 | 7963 ft | 143 kts | 306° |
| 2026-05-04 21:35 | 25.96895 | -80.36807 | 7964 ft | 143 kts | 306° |
| 2026-05-04 21:36 | 25.97541 | -80.37651 | 7965 ft | 143 kts | 306° |
| 2026-05-04 21:36 | 25.98183 | -80.38490 | 7965 ft | 145 kts | 305° |
| 2026-05-04 21:36 | 25.98843 | -80.39356 | 7967 ft | 148 kts | 305° |
| 2026-05-04 21:36 | 25.99513 | -80.40235 | 7963 ft | 150 kts | 305° |
| 2026-05-04 21:37 | 26.00194 | -80.41126 | 7965 ft | 151 kts | 306° |
| 2026-05-04 21:37 | 26.00866 | -80.42003 | 7958 ft | 148 kts | 306° |
| 2026-05-04 21:37 | 26.01532 | -80.42872 | 7950 ft | 145 kts | 306° |
| 2026-05-04 21:37 | 26.02170 | -80.43705 | 7951 ft | 139 kts | 306° |
| 2026-05-04 21:38 | 26.02783 | -80.44508 | 7949 ft | 135 kts | 306° |
| 2026-05-04 21:38 | 26.03386 | -80.45302 | 7951 ft | 133 kts | 305° |
| 2026-05-04 21:38 | 26.03979 | -80.46079 | 7967 ft | 131 kts | 305° |
| 2026-05-04 21:38 | 26.04570 | -80.46855 | 7967 ft | 131 kts | 306° |
| 2026-05-04 21:39 | 26.05157 | -80.47624 | 7967 ft | 131 kts | 305° |
| 2026-05-04 21:39 | 26.05746 | -80.48396 | 7966 ft | 131 kts | 306° |
| 2026-05-04 21:39 | 26.06343 | -80.49179 | 7968 ft | 131 kts | 306° |
| 2026-05-04 21:39 | 26.06930 | -80.49947 | 7967 ft | 131 kts | 306° |
| 2026-05-04 21:40 | 26.07521 | -80.50724 | 7969 ft | 131 kts | 305° |
| 2026-05-04 21:40 | 26.08101 | -80.51483 | 7966 ft | 130 kts | 305° |
| 2026-05-04 21:40 | 26.08686 | -80.52252 | 7970 ft | 130 kts | 305° |
| 2026-05-04 21:40 | 26.09265 | -80.53014 | 7967 ft | 130 kts | 305° |
| 2026-05-04 21:41 | 26.09853 | -80.53785 | 7970 ft | 131 kts | 305° |
| 2026-05-04 21:41 | 26.10447 | -80.54563 | 7972 ft | 131 kts | 305° |
| 2026-05-04 21:41 | 26.11037 | -80.55337 | 7975 ft | 132 kts | 305° |
| 2026-05-04 21:41 | 26.11625 | -80.56109 | 7975 ft | 132 kts | 305° |
| 2026-05-04 21:42 | 26.12221 | -80.56892 | 7973 ft | 132 kts | 305° |
| 2026-05-04 21:42 | 26.12808 | -80.57664 | 7975 ft | 132 kts | 305° |
| 2026-05-04 21:42 | 26.13405 | -80.58448 | 7977 ft | 132 kts | 305° |
| 2026-05-04 21:42 | 26.13995 | -80.59223 | 7983 ft | 133 kts | 305° |
| 2026-05-04 21:43 | 26.14601 | -80.60020 | 7985 ft | 136 kts | 305° |
| 2026-05-04 21:43 | 26.15217 | -80.60831 | 7988 ft | 138 kts | 305° |
| 2026-05-04 21:43 | 26.15836 | -80.61641 | 7980 ft | 139 kts | 305° |
| 2026-05-04 21:43 | 26.16464 | -80.62468 | 7983 ft | 139 kts | 305° |
| 2026-05-04 21:44 | 26.17094 | -80.63297 | 7986 ft | 140 kts | 305° |
| 2026-05-04 21:44 | 26.17718 | -80.64118 | 7987 ft | 141 kts | 306° |
| 2026-05-04 21:44 | 26.18355 | -80.64956 | 7984 ft | 141 kts | 306° |
| 2026-05-04 21:44 | 26.18982 | -80.65780 | 7981 ft | 140 kts | 306° |
| 2026-05-04 21:45 | 26.19612 | -80.66609 | 7978 ft | 139 kts | 305° |
| 2026-05-04 21:45 | 26.20233 | -80.67427 | 7975 ft | 137 kts | 305° |
| 2026-05-04 21:45 | 26.20841 | -80.68227 | 7970 ft | 136 kts | 305° |
| 2026-05-04 21:45 | 26.21453 | -80.69033 | 7969 ft | 135 kts | 305° |
| 2026-05-04 21:46 | 26.22054 | -80.69825 | 7968 ft | 135 kts | 305° |
| 2026-05-04 21:46 | 26.22661 | -80.70626 | 7968 ft | 135 kts | 305° |
| 2026-05-04 21:46 | 26.23268 | -80.71425 | 7969 ft | 134 kts | 305° |
| 2026-05-04 21:46 | 26.23865 | -80.72212 | 7969 ft | 134 kts | 305° |
| 2026-05-04 21:47 | 26.24473 | -80.73013 | 7969 ft | 134 kts | 305° |
| 2026-05-04 21:47 | 26.25072 | -80.73802 | 7968 ft | 134 kts | 305° |
| 2026-05-04 21:47 | 26.25680 | -80.74604 | 7971 ft | 134 kts | 305° |
| 2026-05-04 21:47 | 26.26276 | -80.75390 | 7971 ft | 134 kts | 305° |
| 2026-05-04 21:48 | 26.26883 | -80.76190 | 7972 ft | 134 kts | 305° |
| 2026-05-04 21:48 | 26.27480 | -80.76979 | 7969 ft | 134 kts | 305° |
| 2026-05-04 21:48 | 26.28086 | -80.77777 | 7971 ft | 134 kts | 305° |
| 2026-05-04 21:48 | 26.28683 | -80.78566 | 7969 ft | 134 kts | 305° |
| 2026-05-04 21:49 | 26.29287 | -80.79364 | 7970 ft | 134 kts | 305° |
| 2026-05-04 21:49 | 26.29880 | -80.80144 | 7997 ft | 132 kts | 305° |
| 2026-05-04 21:49 | 26.30476 | -80.80933 | 7996 ft | 133 kts | 305° |
| 2026-05-04 21:49 | 26.31075 | -80.81725 | 7994 ft | 133 kts | 305° |
| 2026-05-04 21:50 | 26.31667 | -80.82506 | 7995 ft | 133 kts | 305° |
| 2026-05-04 21:50 | 26.32270 | -80.83302 | 7996 ft | 134 kts | 305° |
| 2026-05-04 21:50 | 26.32869 | -80.84095 | 7997 ft | 134 kts | 305° |
| 2026-05-04 21:50 | 26.33473 | -80.84891 | 7996 ft | 134 kts | 305° |
| 2026-05-04 21:51 | 26.34072 | -80.85683 | 7996 ft | 135 kts | 305° |
| 2026-05-04 21:51 | 26.34678 | -80.86485 | 7998 ft | 135 kts | 305° |
| 2026-05-04 21:51 | 26.35287 | -80.87289 | 7998 ft | 135 kts | 305° |
| 2026-05-04 21:51 | 26.35892 | -80.88090 | 7997 ft | 135 kts | 305° |
| 2026-05-04 21:52 | 26.36495 | -80.88887 | 7995 ft | 135 kts | 305° |
| 2026-05-04 21:52 | 26.37103 | -80.89690 | 7999 ft | 135 kts | 305° |
| 2026-05-04 21:52 | 26.37712 | -80.90496 | 7997 ft | 135 kts | 305° |
| 2026-05-04 21:52 | 26.38320 | -80.91303 | 7996 ft | 136 kts | 305° |
| 2026-05-04 21:53 | 26.38929 | -80.92109 | 7998 ft | 135 kts | 305° |
| 2026-05-04 21:53 | 26.39533 | -80.92906 | 7999 ft | 135 kts | 304° |
| 2026-05-04 21:53 | 26.40144 | -80.93716 | 8002 ft | 135 kts | 304° |
| 2026-05-04 21:53 | 26.40746 | -80.94513 | 8000 ft | 135 kts | 305° |
| 2026-05-04 21:54 | 26.41356 | -80.95322 | 8000 ft | 135 kts | 305° |
| 2026-05-04 21:54 | 26.41963 | -80.96125 | 8000 ft | 135 kts | 305° |
| 2026-05-04 21:54 | 26.42564 | -80.96921 | 7999 ft | 135 kts | 304° |
| 2026-05-04 21:54 | 26.43164 | -80.97717 | 8000 ft | 135 kts | 305° |
| 2026-05-04 21:55 | 26.43773 | -80.98523 | 7996 ft | 135 kts | 305° |
| 2026-05-04 21:55 | 26.44375 | -80.99322 | 7995 ft | 135 kts | 305° |
| 2026-05-04 21:55 | 26.44985 | -81.00131 | 7996 ft | 135 kts | 305° |
| 2026-05-04 21:55 | 26.45583 | -81.00924 | 7994 ft | 135 kts | 305° |
| 2026-05-04 21:56 | 26.46189 | -81.01728 | 7993 ft | 135 kts | 305° |
| 2026-05-04 21:56 | 26.46789 | -81.02524 | 7998 ft | 135 kts | 305° |
| 2026-05-04 21:56 | 26.47398 | -81.03332 | 7996 ft | 135 kts | 305° |
| 2026-05-04 21:56 | 26.47998 | -81.04127 | 7997 ft | 135 kts | 305° |
| 2026-05-04 21:57 | 26.48606 | -81.04936 | 7998 ft | 135 kts | 304° |
| 2026-05-04 21:57 | 26.49211 | -81.05737 | 7998 ft | 135 kts | 305° |
| 2026-05-04 21:57 | 26.49816 | -81.06542 | 7998 ft | 135 kts | 304° |
| 2026-05-04 21:57 | 26.50417 | -81.07340 | 7998 ft | 135 kts | 304° |
| 2026-05-04 21:58 | 26.51025 | -81.08147 | 7998 ft | 135 kts | 304° |
| 2026-05-04 21:58 | 26.51693 | -81.08887 | 7993 ft | 138 kts | 314° |
| 2026-05-04 21:58 | 26.52428 | -81.09578 | 7997 ft | 138 kts | 314° |
| 2026-05-04 21:58 | 26.53160 | -81.10283 | 7998 ft | 138 kts | 313° |
| 2026-05-04 21:59 | 26.53880 | -81.10982 | 7998 ft | 137 kts | 313° |
| 2026-05-04 21:59 | 26.54606 | -81.11686 | 7998 ft | 137 kts | 313° |
| 2026-05-04 21:59 | 26.55321 | -81.12379 | 7998 ft | 137 kts | 313° |
| 2026-05-04 21:59 | 26.56041 | -81.13076 | 7995 ft | 138 kts | 313° |
| 2026-05-04 22:00 | 26.56766 | -81.13780 | 7996 ft | 137 kts | 313° |
| 2026-05-04 22:00 | 26.57479 | -81.14473 | 7998 ft | 137 kts | 313° |
| 2026-05-04 22:00 | 26.58202 | -81.15175 | 7998 ft | 136 kts | 313° |
| 2026-05-04 22:00 | 26.58912 | -81.15863 | 7993 ft | 137 kts | 313° |
| 2026-05-04 22:01 | 26.59635 | -81.16567 | 7997 ft | 137 kts | 313° |
| 2026-05-04 22:01 | 26.60348 | -81.17259 | 7997 ft | 137 kts | 313° |
| 2026-05-04 22:01 | 26.61069 | -81.17959 | 8001 ft | 137 kts | 313° |
| 2026-05-04 22:01 | 26.61791 | -81.18660 | 7996 ft | 137 kts | 313° |
| 2026-05-04 22:02 | 26.62513 | -81.19362 | 7999 ft | 137 kts | 313° |
| 2026-05-04 22:02 | 26.63232 | -81.20059 | 7998 ft | 138 kts | 313° |
| 2026-05-04 22:02 | 26.63960 | -81.20766 | 8000 ft | 138 kts | 313° |
| 2026-05-04 22:02 | 26.64676 | -81.21462 | 7999 ft | 138 kts | 313° |
| 2026-05-04 22:03 | 26.65399 | -81.22166 | 8002 ft | 137 kts | 313° |
| 2026-05-04 22:03 | 26.66120 | -81.22867 | 7999 ft | 138 kts | 313° |
| 2026-05-04 22:03 | 26.66845 | -81.23572 | 7995 ft | 137 kts | 313° |
| 2026-05-04 22:03 | 26.67326 | -81.24040 | 7996 ft | 137 kts | 313° |
| 2026-05-04 22:04 | 26.68051 | -81.24745 | 7996 ft | 138 kts | 313° |
| 2026-05-04 22:04 | 26.68773 | -81.25446 | 7996 ft | 138 kts | 313° |
| 2026-05-04 22:04 | 26.69494 | -81.26151 | 8003 ft | 139 kts | 313° |
| 2026-05-04 22:04 | 26.70230 | -81.26865 | 7998 ft | 139 kts | 313° |
| 2026-05-04 22:05 | 26.70962 | -81.27577 | 8001 ft | 139 kts | 313° |
| 2026-05-04 22:05 | 26.71695 | -81.28292 | 8002 ft | 140 kts | 313° |
| 2026-05-04 22:05 | 26.72420 | -81.28997 | 8001 ft | 139 kts | 313° |
| 2026-05-04 22:05 | 26.73153 | -81.29711 | 8002 ft | 139 kts | 313° |
| 2026-05-04 22:06 | 26.73882 | -81.30421 | 7997 ft | 138 kts | 313° |
| 2026-05-04 22:06 | 26.74602 | -81.31123 | 7997 ft | 138 kts | 313° |
| 2026-05-04 22:06 | 26.75327 | -81.31828 | 7998 ft | 137 kts | 313° |
| 2026-05-04 22:06 | 26.76049 | -81.32533 | 7997 ft | 137 kts | 313° |
| 2026-05-04 22:07 | 26.76762 | -81.33229 | 7997 ft | 136 kts | 313° |
| 2026-05-04 22:07 | 26.77473 | -81.33920 | 7995 ft | 136 kts | 313° |
| 2026-05-04 22:07 | 26.78193 | -81.34623 | 7996 ft | 137 kts | 313° |
| 2026-05-04 22:07 | 26.78906 | -81.35320 | 7996 ft | 137 kts | 313° |
| 2026-05-04 22:08 | 26.79631 | -81.36026 | 7996 ft | 137 kts | 313° |
| 2026-05-04 22:08 | 26.80347 | -81.36724 | 7996 ft | 137 kts | 313° |
| 2026-05-04 22:08 | 26.81071 | -81.37432 | 7996 ft | 137 kts | 313° |
| 2026-05-04 22:08 | 26.81782 | -81.38126 | 7996 ft | 137 kts | 313° |
| 2026-05-04 22:09 | 26.82503 | -81.38829 | 7996 ft | 137 kts | 313° |
| 2026-05-04 22:09 | 26.83298 | -81.39446 | 7990 ft | 142 kts | 327° |
| 2026-05-04 22:09 | 26.84210 | -81.39896 | 7990 ft | 142 kts | 330° |
| 2026-05-04 22:09 | 26.85098 | -81.40353 | 7989 ft | 141 kts | 329° |
| 2026-05-04 22:10 | 26.85988 | -81.40824 | 7990 ft | 141 kts | 329° |
| 2026-05-04 22:10 | 26.86866 | -81.41291 | 7991 ft | 141 kts | 329° |
| 2026-05-04 22:10 | 26.87756 | -81.41764 | 7990 ft | 141 kts | 329° |
| 2026-05-04 22:10 | 26.88637 | -81.42231 | 7993 ft | 141 kts | 329° |
| 2026-05-04 22:11 | 26.89523 | -81.42704 | 7987 ft | 141 kts | 328° |
| 2026-05-04 22:11 | 26.90412 | -81.43177 | 7989 ft | 141 kts | 329° |
| 2026-05-04 22:11 | 26.91290 | -81.43644 | 7992 ft | 141 kts | 328° |
| 2026-05-04 22:11 | 26.92180 | -81.44118 | 7993 ft | 140 kts | 329° |
| 2026-05-04 22:12 | 26.93066 | -81.44590 | 7992 ft | 141 kts | 329° |
| 2026-05-04 22:12 | 26.93951 | -81.45059 | 7993 ft | 141 kts | 329° |
| 2026-05-04 22:12 | 26.94842 | -81.45534 | 7992 ft | 141 kts | 328° |
| 2026-05-04 22:12 | 26.95724 | -81.46004 | 7992 ft | 141 kts | 329° |
| 2026-05-04 22:13 | 26.96607 | -81.46474 | 7992 ft | 141 kts | 329° |
| 2026-05-04 22:13 | 26.97499 | -81.46949 | 7994 ft | 141 kts | 328° |
| 2026-05-04 22:13 | 26.98376 | -81.47418 | 7995 ft | 141 kts | 329° |
| 2026-05-04 22:13 | 26.99270 | -81.47896 | 7995 ft | 141 kts | 329° |
| 2026-05-04 22:14 | 27.00153 | -81.48366 | 7995 ft | 142 kts | 329° |
| 2026-05-04 22:14 | 27.01048 | -81.48842 | 7997 ft | 141 kts | 329° |
| 2026-05-04 22:14 | 27.01932 | -81.49312 | 7997 ft | 142 kts | 329° |
| 2026-05-04 22:14 | 27.02829 | -81.49791 | 7999 ft | 142 kts | 329° |
| 2026-05-04 22:15 | 27.03713 | -81.50263 | 7999 ft | 141 kts | 329° |
| 2026-05-04 22:15 | 27.04603 | -81.50737 | 7998 ft | 141 kts | 328° |
| 2026-05-04 22:15 | 27.05491 | -81.51213 | 8000 ft | 142 kts | 329° |
| 2026-05-04 22:15 | 27.06385 | -81.51690 | 7998 ft | 142 kts | 329° |
| 2026-05-04 22:16 | 27.07269 | -81.52162 | 7999 ft | 141 kts | 328° |
| 2026-05-04 22:16 | 27.08156 | -81.52637 | 8001 ft | 142 kts | 329° |
| 2026-05-04 22:16 | 27.09063 | -81.53120 | 8001 ft | 143 kts | 329° |
| 2026-05-04 22:16 | 27.09963 | -81.53599 | 8003 ft | 143 kts | 329° |
| 2026-05-04 22:17 | 27.10847 | -81.54072 | 8003 ft | 142 kts | 329° |
| 2026-05-04 22:17 | 27.11740 | -81.54550 | 8005 ft | 142 kts | 329° |
| 2026-05-04 22:17 | 27.12634 | -81.55027 | 8001 ft | 142 kts | 329° |
| 2026-05-04 22:17 | 27.13531 | -81.55507 | 8001 ft | 142 kts | 329° |
| 2026-05-04 22:18 | 27.14422 | -81.55983 | 8000 ft | 141 kts | 329° |
| 2026-05-04 22:18 | 27.15310 | -81.56458 | 8000 ft | 141 kts | 329° |
| 2026-05-04 22:18 | 27.16192 | -81.56929 | 8000 ft | 140 kts | 329° |
| 2026-05-04 22:18 | 27.17074 | -81.57402 | 8000 ft | 140 kts | 329° |
| 2026-05-04 22:19 | 27.17954 | -81.57873 | 8002 ft | 140 kts | 329° |
| 2026-05-04 22:19 | 27.18838 | -81.58345 | 8001 ft | 140 kts | 329° |
| 2026-05-04 22:19 | 27.19717 | -81.58817 | 8003 ft | 140 kts | 329° |
| 2026-05-04 22:19 | 27.20597 | -81.59287 | 8002 ft | 140 kts | 329° |
| 2026-05-04 22:20 | 27.21479 | -81.59759 | 8000 ft | 140 kts | 329° |
| 2026-05-04 22:20 | 27.22350 | -81.60225 | 8001 ft | 140 kts | 329° |
| 2026-05-04 22:20 | 27.23230 | -81.60697 | 8003 ft | 140 kts | 329° |
| 2026-05-04 22:20 | 27.24113 | -81.61169 | 8006 ft | 141 kts | 329° |
| 2026-05-04 22:21 | 27.25011 | -81.61652 | 8006 ft | 141 kts | 329° |
| 2026-05-04 22:21 | 27.25885 | -81.62119 | 8006 ft | 141 kts | 329° |
| 2026-05-04 22:21 | 27.26769 | -81.62592 | 8008 ft | 141 kts | 329° |
| 2026-05-04 22:21 | 27.27651 | -81.63065 | 8009 ft | 141 kts | 329° |
| 2026-05-04 22:22 | 27.28535 | -81.63540 | 8009 ft | 141 kts | 329° |
| 2026-05-04 22:22 | 27.29432 | -81.64020 | 8011 ft | 141 kts | 329° |
| 2026-05-04 22:22 | 27.30308 | -81.64490 | 8013 ft | 141 kts | 329° |
| 2026-05-04 22:22 | 27.31198 | -81.64966 | 8012 ft | 142 kts | 328° |
| 2026-05-04 22:23 | 27.32087 | -81.65445 | 8016 ft | 142 kts | 329° |
| 2026-05-04 22:23 | 27.32981 | -81.65924 | 8015 ft | 142 kts | 329° |
| 2026-05-04 22:23 | 27.33875 | -81.66404 | 8014 ft | 142 kts | 329° |
| 2026-05-04 22:23 | 27.34768 | -81.66882 | 8015 ft | 142 kts | 329° |
| 2026-05-04 22:24 | 27.35659 | -81.67361 | 8014 ft | 142 kts | 329° |
| 2026-05-04 22:24 | 27.36549 | -81.67841 | 8013 ft | 141 kts | 329° |
| 2026-05-04 22:24 | 27.37437 | -81.68316 | 8015 ft | 141 kts | 329° |
| 2026-05-04 22:24 | 27.38324 | -81.68794 | 8013 ft | 141 kts | 329° |
| 2026-05-04 22:25 | 27.39213 | -81.69270 | 8013 ft | 141 kts | 329° |
| 2026-05-04 22:25 | 27.40098 | -81.69746 | 8015 ft | 141 kts | 329° |
| 2026-05-04 22:25 | 27.40985 | -81.70223 | 8015 ft | 141 kts | 329° |
| 2026-05-04 22:25 | 27.41871 | -81.70700 | 8018 ft | 141 kts | 329° |
| 2026-05-04 22:26 | 27.42755 | -81.71174 | 8018 ft | 141 kts | 329° |
| 2026-05-04 22:26 | 27.43644 | -81.71652 | 8015 ft | 142 kts | 329° |
| 2026-05-04 22:26 | 27.44532 | -81.72130 | 8015 ft | 141 kts | 329° |
| 2026-05-04 22:26 | 27.45406 | -81.72600 | 8015 ft | 141 kts | 329° |
| 2026-05-04 22:27 | 27.46289 | -81.73075 | 8015 ft | 141 kts | 329° |
| 2026-05-04 22:27 | 27.47171 | -81.73550 | 8015 ft | 141 kts | 329° |
| 2026-05-04 22:27 | 27.48054 | -81.74025 | 8016 ft | 140 kts | 329° |
| 2026-05-04 22:27 | 27.48936 | -81.74500 | 8015 ft | 140 kts | 329° |
| 2026-05-04 22:28 | 27.49814 | -81.74972 | 8017 ft | 140 kts | 329° |
| 2026-05-04 22:28 | 27.50694 | -81.75448 | 8015 ft | 140 kts | 329° |
| 2026-05-04 22:28 | 27.51578 | -81.75923 | 8017 ft | 141 kts | 329° |
| 2026-05-04 22:28 | 27.52463 | -81.76399 | 8017 ft | 140 kts | 329° |
| 2026-05-04 22:29 | 27.53343 | -81.76875 | 8018 ft | 141 kts | 329° |
| 2026-05-04 22:29 | 27.54230 | -81.77351 | 8017 ft | 141 kts | 329° |
| 2026-05-04 22:29 | 27.55117 | -81.77830 | 8020 ft | 141 kts | 329° |
| 2026-05-04 22:29 | 27.56004 | -81.78308 | 8020 ft | 142 kts | 329° |
| 2026-05-04 22:30 | 27.56893 | -81.78787 | 8022 ft | 141 kts | 329° |
| 2026-05-04 22:30 | 27.57780 | -81.79266 | 8021 ft | 141 kts | 329° |
| 2026-05-04 22:30 | 27.58668 | -81.79745 | 8022 ft | 141 kts | 329° |
| 2026-05-04 22:30 | 27.59552 | -81.80223 | 8021 ft | 141 kts | 329° |
| 2026-05-04 22:31 | 27.60425 | -81.80693 | 8021 ft | 141 kts | 329° |
| 2026-05-04 22:31 | 27.61267 | -81.81147 | 8022 ft | 141 kts | 329° |
| 2026-05-04 22:31 | 27.62154 | -81.81626 | 8021 ft | 141 kts | 329° |
| 2026-05-04 22:31 | 27.63041 | -81.82106 | 8022 ft | 142 kts | 329° |
| 2026-05-04 22:32 | 27.63931 | -81.82585 | 8024 ft | 141 kts | 329° |
| 2026-05-04 22:32 | 27.64818 | -81.83064 | 8023 ft | 141 kts | 329° |
| 2026-05-04 22:32 | 27.65699 | -81.83541 | 8025 ft | 141 kts | 329° |
| 2026-05-04 22:32 | 27.66586 | -81.84019 | 8027 ft | 141 kts | 329° |
| 2026-05-04 22:33 | 27.67477 | -81.84502 | 8026 ft | 142 kts | 329° |
| 2026-05-04 22:33 | 27.68366 | -81.84981 | 8027 ft | 141 kts | 329° |
| 2026-05-04 22:33 | 27.69255 | -81.85462 | 8027 ft | 141 kts | 329° |
| 2026-05-04 22:33 | 27.70143 | -81.85943 | 8029 ft | 142 kts | 329° |
| 2026-05-04 22:34 | 27.71033 | -81.86423 | 8029 ft | 142 kts | 329° |
| 2026-05-04 22:34 | 27.71919 | -81.86902 | 8030 ft | 141 kts | 329° |
| 2026-05-04 22:34 | 27.72802 | -81.87379 | 8028 ft | 141 kts | 329° |
| 2026-05-04 22:34 | 27.73685 | -81.87858 | 8028 ft | 141 kts | 329° |
| 2026-05-04 22:35 | 27.74568 | -81.88336 | 8030 ft | 141 kts | 329° |
| 2026-05-04 22:35 | 27.75441 | -81.88808 | 8031 ft | 140 kts | 329° |
| 2026-05-04 22:35 | 27.76330 | -81.89289 | 8030 ft | 140 kts | 329° |
| 2026-05-04 22:35 | 27.77203 | -81.89761 | 8029 ft | 140 kts | 329° |
| 2026-05-04 22:36 | 27.78084 | -81.90240 | 8033 ft | 140 kts | 329° |
| 2026-05-04 22:36 | 27.78958 | -81.90713 | 8033 ft | 141 kts | 330° |
| 2026-05-04 22:36 | 27.79842 | -81.91192 | 8032 ft | 141 kts | 329° |
| 2026-05-04 22:36 | 27.80717 | -81.91665 | 8030 ft | 140 kts | 329° |
| 2026-05-04 22:37 | 27.81600 | -81.92143 | 8031 ft | 139 kts | 329° |
| 2026-05-04 22:37 | 27.82468 | -81.92615 | 8032 ft | 139 kts | 329° |
| 2026-05-04 22:37 | 27.83352 | -81.93094 | 8028 ft | 139 kts | 329° |
| 2026-05-04 22:37 | 27.84222 | -81.93564 | 8015 ft | 140 kts | 329° |
| 2026-05-04 22:38 | 27.85100 | -81.94042 | 8016 ft | 140 kts | 329° |
| 2026-05-04 22:38 | 27.85971 | -81.94514 | 8014 ft | 140 kts | 329° |
| 2026-05-04 22:38 | 27.86856 | -81.94994 | 8015 ft | 140 kts | 329° |
| 2026-05-04 22:38 | 27.87728 | -81.95467 | 8014 ft | 140 kts | 330° |
| 2026-05-04 22:39 | 27.88611 | -81.95946 | 8013 ft | 140 kts | 330° |
| 2026-05-04 22:39 | 27.89478 | -81.96417 | 8015 ft | 139 kts | 329° |
| 2026-05-04 22:39 | 27.90351 | -81.96892 | 8011 ft | 139 kts | 330° |
| 2026-05-04 22:39 | 27.91230 | -81.97370 | 8015 ft | 139 kts | 330° |
| 2026-05-04 22:40 | 27.92106 | -81.97844 | 8015 ft | 139 kts | 329° |
| 2026-05-04 22:40 | 27.92971 | -81.98314 | 8012 ft | 139 kts | 329° |
| 2026-05-04 22:40 | 27.93849 | -81.98791 | 8014 ft | 139 kts | 330° |
| 2026-05-04 22:40 | 27.94710 | -81.99259 | 8013 ft | 139 kts | 329° |
| 2026-05-04 22:41 | 27.95583 | -81.99734 | 8011 ft | 139 kts | 330° |
| 2026-05-04 22:41 | 27.96457 | -82.00208 | 8013 ft | 138 kts | 329° |
| 2026-05-04 22:41 | 27.97330 | -82.00683 | 8014 ft | 139 kts | 329° |
| 2026-05-04 22:41 | 27.98198 | -82.01156 | 8011 ft | 139 kts | 330° |
| 2026-05-04 22:42 | 27.99050 | -82.01656 | 8010 ft | 138 kts | 325° |
| 2026-05-04 22:42 | 27.99888 | -82.02193 | 8010 ft | 138 kts | 327° |
| 2026-05-04 22:42 | 28.00740 | -82.02725 | 8012 ft | 139 kts | 327° |
| 2026-05-04 22:42 | 28.01577 | -82.03251 | 8013 ft | 140 kts | 326° |
| 2026-05-04 22:43 | 28.02432 | -82.03789 | 8013 ft | 140 kts | 327° |
| 2026-05-04 22:43 | 28.03289 | -82.04330 | 8012 ft | 140 kts | 327° |
| 2026-05-04 22:43 | 28.04134 | -82.04862 | 8012 ft | 139 kts | 327° |
| 2026-05-04 22:43 | 28.04970 | -82.05389 | 8011 ft | 139 kts | 326° |
| 2026-05-04 22:44 | 28.05814 | -82.05922 | 8012 ft | 138 kts | 326° |
| 2026-05-04 22:44 | 28.06659 | -82.06457 | 8012 ft | 138 kts | 327° |
| 2026-05-04 22:44 | 28.07488 | -82.06978 | 8008 ft | 136 kts | 326° |
| 2026-05-04 22:44 | 28.08035 | -82.07325 | 8008 ft | 135 kts | 326° |
| 2026-05-04 22:45 | 28.09129 | -82.08017 | 8004 ft | 135 kts | 326° |
| 2026-05-04 22:45 | 28.10502 | -82.08884 | 8007 ft | 135 kts | 327° |
| 2026-05-04 22:45 | 28.11314 | -82.09397 | 8022 ft | 134 kts | 327° |
| 2026-05-04 22:46 | 28.12124 | -82.09909 | 8020 ft | 134 kts | 326° |
| 2026-05-04 22:46 | 28.12947 | -82.10431 | 8022 ft | 135 kts | 326° |
| 2026-05-04 22:46 | 28.13762 | -82.10945 | 8025 ft | 136 kts | 327° |
| 2026-05-04 22:46 | 28.14592 | -82.11469 | 8027 ft | 137 kts | 326° |
| 2026-05-04 22:47 | 28.15424 | -82.11996 | 8027 ft | 136 kts | 326° |
| 2026-05-04 22:47 | 28.16254 | -82.12523 | 8027 ft | 137 kts | 327° |
| 2026-05-04 22:47 | 28.17084 | -82.13046 | 8035 ft | 139 kts | 327° |
| 2026-05-04 22:47 | 28.17934 | -82.13584 | 8030 ft | 138 kts | 326° |
| 2026-05-04 22:48 | 28.18763 | -82.14110 | 8029 ft | 137 kts | 327° |
| 2026-05-04 22:48 | 28.19594 | -82.14635 | 8027 ft | 135 kts | 326° |
| 2026-05-04 22:48 | 28.20409 | -82.15152 | 8022 ft | 135 kts | 327° |
| 2026-05-04 22:48 | 28.21235 | -82.15674 | 8023 ft | 135 kts | 326° |
| 2026-05-04 22:49 | 28.22046 | -82.16189 | 8020 ft | 134 kts | 326° |
| 2026-05-04 22:49 | 28.22869 | -82.16711 | 8022 ft | 134 kts | 327° |
| 2026-05-04 22:49 | 28.23679 | -82.17223 | 8022 ft | 134 kts | 327° |
| 2026-05-04 22:49 | 28.24494 | -82.17741 | 8019 ft | 134 kts | 326° |
| 2026-05-04 22:50 | 28.25308 | -82.18255 | 8029 ft | 132 kts | 326° |
| 2026-05-04 22:50 | 28.26109 | -82.18764 | 8030 ft | 133 kts | 326° |
| 2026-05-04 22:50 | 28.26914 | -82.19275 | 8029 ft | 133 kts | 326° |
| 2026-05-04 22:50 | 28.27728 | -82.19791 | 8031 ft | 133 kts | 326° |
| 2026-05-04 22:51 | 28.28529 | -82.20300 | 8029 ft | 133 kts | 326° |
| 2026-05-04 22:51 | 28.29346 | -82.20817 | 8031 ft | 134 kts | 326° |
| 2026-05-04 22:51 | 28.30160 | -82.21334 | 8030 ft | 134 kts | 327° |
| 2026-05-04 22:51 | 28.30964 | -82.21845 | 8026 ft | 133 kts | 327° |
| 2026-05-04 22:52 | 28.31777 | -82.22360 | 8029 ft | 133 kts | 326° |
| 2026-05-04 22:52 | 28.32577 | -82.22869 | 8026 ft | 133 kts | 326° |
| 2026-05-04 22:52 | 28.33390 | -82.23385 | 8030 ft | 133 kts | 326° |
| 2026-05-04 22:52 | 28.34194 | -82.23896 | 8028 ft | 133 kts | 327° |
| 2026-05-04 22:53 | 28.35006 | -82.24411 | 8027 ft | 133 kts | 327° |
| 2026-05-04 22:53 | 28.35822 | -82.24931 | 8028 ft | 133 kts | 327° |
| 2026-05-04 22:53 | 28.36628 | -82.25443 | 8028 ft | 134 kts | 327° |
| 2026-05-04 22:53 | 28.37444 | -82.25960 | 8029 ft | 134 kts | 327° |
| 2026-05-04 22:54 | 28.38261 | -82.26479 | 8028 ft | 135 kts | 327° |
| 2026-05-04 22:54 | 28.39075 | -82.26997 | 8014 ft | 134 kts | 327° |
| 2026-05-04 22:54 | 28.39886 | -82.27514 | 8018 ft | 134 kts | 327° |
| 2026-05-04 22:54 | 28.40710 | -82.28037 | 8017 ft | 136 kts | 327° |
| 2026-05-04 22:55 | 28.41530 | -82.28559 | 8019 ft | 136 kts | 327° |
| 2026-05-04 22:55 | 28.42359 | -82.29089 | 8023 ft | 136 kts | 326° |
| 2026-05-04 22:55 | 28.43181 | -82.29612 | 8021 ft | 137 kts | 327° |
| 2026-05-04 22:55 | 28.44012 | -82.30138 | 8023 ft | 138 kts | 327° |
| 2026-05-04 22:56 | 28.44854 | -82.30675 | 8023 ft | 137 kts | 327° |
| 2026-05-04 22:56 | 28.45688 | -82.31205 | 8022 ft | 136 kts | 327° |
| 2026-05-04 22:56 | 28.46505 | -82.31726 | 8020 ft | 135 kts | 327° |
| 2026-05-04 22:56 | 28.47320 | -82.32244 | 8018 ft | 135 kts | 327° |
| 2026-05-04 22:57 | 28.48139 | -82.32767 | 8017 ft | 134 kts | 327° |
| 2026-05-04 22:57 | 28.48947 | -82.33282 | 8018 ft | 134 kts | 327° |
| 2026-05-04 22:57 | 28.49764 | -82.33803 | 8016 ft | 134 kts | 327° |
| 2026-05-04 22:57 | 28.50578 | -82.34322 | 8014 ft | 134 kts | 327° |
| 2026-05-04 22:58 | 28.51384 | -82.34836 | 8011 ft | 134 kts | 326° |
| 2026-05-04 22:58 | 28.52205 | -82.35360 | 8014 ft | 134 kts | 327° |
| 2026-05-04 22:58 | 28.53009 | -82.35873 | 8013 ft | 134 kts | 327° |
| 2026-05-04 22:58 | 28.53817 | -82.36387 | 8015 ft | 134 kts | 327° |
| 2026-05-04 22:59 | 28.54634 | -82.36909 | 8014 ft | 133 kts | 327° |
| 2026-05-04 22:59 | 28.55444 | -82.37426 | 8014 ft | 133 kts | 327° |
| 2026-05-04 22:59 | 28.56250 | -82.37939 | 8016 ft | 133 kts | 326° |
| 2026-05-04 22:59 | 28.57058 | -82.38457 | 8012 ft | 133 kts | 327° |
| 2026-05-04 23:00 | 28.57867 | -82.38973 | 8016 ft | 133 kts | 327° |
| 2026-05-04 23:00 | 28.58667 | -82.39483 | 8015 ft | 133 kts | 327° |
| 2026-05-04 23:00 | 28.59477 | -82.40001 | 8013 ft | 133 kts | 326° |
| 2026-05-04 23:00 | 28.60286 | -82.40518 | 8012 ft | 133 kts | 326° |
| 2026-05-04 23:01 | 28.61098 | -82.41037 | 8015 ft | 133 kts | 327° |
| 2026-05-04 23:01 | 28.61899 | -82.41548 | 8015 ft | 133 kts | 326° |
| 2026-05-04 23:01 | 28.62709 | -82.42065 | 8014 ft | 133 kts | 326° |
| 2026-05-04 23:01 | 28.63506 | -82.42576 | 8014 ft | 132 kts | 326° |
| 2026-05-04 23:02 | 28.64319 | -82.43095 | 8016 ft | 132 kts | 326° |
| 2026-05-04 23:02 | 28.65116 | -82.43605 | 8016 ft | 133 kts | 327° |
| 2026-05-04 23:02 | 28.65926 | -82.44124 | 8019 ft | 133 kts | 326° |
| 2026-05-04 23:02 | 28.66730 | -82.44638 | 8021 ft | 133 kts | 327° |
| 2026-05-04 23:03 | 28.67530 | -82.45150 | 8023 ft | 133 kts | 326° |
| 2026-05-04 23:03 | 28.68336 | -82.45665 | 8019 ft | 133 kts | 326° |
| 2026-05-04 23:03 | 28.69148 | -82.46184 | 8014 ft | 134 kts | 326° |
| 2026-05-04 23:03 | 28.69959 | -82.46703 | 8015 ft | 133 kts | 326° |
| 2026-05-04 23:04 | 28.70763 | -82.47218 | 8018 ft | 134 kts | 326° |
| 2026-05-04 23:04 | 28.71579 | -82.47742 | 8019 ft | 134 kts | 327° |
| 2026-05-04 23:04 | 28.72381 | -82.48256 | 8026 ft | 133 kts | 326° |
| 2026-05-04 23:04 | 28.73192 | -82.48775 | 8014 ft | 133 kts | 326° |
| 2026-05-04 23:05 | 28.74004 | -82.49295 | 8015 ft | 133 kts | 326° |
| 2026-05-04 23:05 | 28.74807 | -82.49809 | 8017 ft | 133 kts | 326° |
| 2026-05-04 23:05 | 28.75619 | -82.50330 | 8015 ft | 133 kts | 326° |
| 2026-05-04 23:05 | 28.76419 | -82.50844 | 8016 ft | 133 kts | 326° |
| 2026-05-04 23:06 | 28.77234 | -82.51366 | 8015 ft | 133 kts | 326° |
| 2026-05-04 23:06 | 28.78037 | -82.51881 | 8017 ft | 133 kts | 327° |
| 2026-05-04 23:06 | 28.78852 | -82.52404 | 8018 ft | 133 kts | 326° |
| 2026-05-04 23:06 | 28.79664 | -82.52925 | 8015 ft | 134 kts | 326° |
| 2026-05-04 23:07 | 28.80470 | -82.53442 | 8013 ft | 134 kts | 326° |
| 2026-05-04 23:07 | 28.81286 | -82.53965 | 8015 ft | 134 kts | 327° |
| 2026-05-04 23:07 | 28.82092 | -82.54483 | 8016 ft | 133 kts | 326° |
| 2026-05-04 23:07 | 28.82897 | -82.55000 | 8015 ft | 134 kts | 326° |
| 2026-05-04 23:08 | 28.83710 | -82.55521 | 8017 ft | 133 kts | 326° |
| 2026-05-04 23:08 | 28.84515 | -82.56039 | 8015 ft | 133 kts | 327° |
| 2026-05-04 23:08 | 28.85329 | -82.56562 | 8016 ft | 133 kts | 326° |
| 2026-05-04 23:08 | 28.86129 | -82.57075 | 8014 ft | 133 kts | 326° |
| 2026-05-04 23:09 | 28.86938 | -82.57596 | 8017 ft | 133 kts | 327° |
| 2026-05-04 23:09 | 28.87744 | -82.58113 | 8017 ft | 134 kts | 327° |
| 2026-05-04 23:09 | 28.88560 | -82.58638 | 8013 ft | 134 kts | 326° |
| 2026-05-04 23:09 | 28.89372 | -82.59160 | 8016 ft | 134 kts | 326° |
| 2026-05-04 23:10 | 28.90180 | -82.59680 | 8016 ft | 134 kts | 326° |
| 2026-05-04 23:10 | 28.90988 | -82.60200 | 8017 ft | 133 kts | 327° |
| 2026-05-04 23:10 | 28.91805 | -82.60725 | 8015 ft | 134 kts | 327° |
| 2026-05-04 23:10 | 28.92608 | -82.61242 | 8014 ft | 133 kts | 327° |
| 2026-05-04 23:11 | 28.93418 | -82.61763 | 8016 ft | 133 kts | 327° |
| 2026-05-04 23:11 | 28.94228 | -82.62286 | 8013 ft | 133 kts | 326° |
| 2026-05-04 23:11 | 28.95029 | -82.62800 | 8014 ft | 133 kts | 327° |
| 2026-05-04 23:11 | 28.95840 | -82.63322 | 8014 ft | 133 kts | 327° |
| 2026-05-04 23:12 | 28.96645 | -82.63841 | 8015 ft | 134 kts | 327° |
| 2026-05-04 23:12 | 28.97461 | -82.64367 | 8018 ft | 134 kts | 327° |
| 2026-05-04 23:12 | 28.98267 | -82.64886 | 8016 ft | 134 kts | 326° |
| 2026-05-04 23:12 | 28.99086 | -82.65413 | 8016 ft | 134 kts | 327° |
| 2026-05-04 23:13 | 28.99903 | -82.65939 | 8016 ft | 134 kts | 327° |
| 2026-05-04 23:13 | 29.00706 | -82.66458 | 8016 ft | 134 kts | 327° |
| 2026-05-04 23:13 | 29.01527 | -82.66986 | 8016 ft | 134 kts | 327° |
| 2026-05-04 23:13 | 29.02332 | -82.67506 | 8014 ft | 134 kts | 327° |
| 2026-05-04 23:14 | 29.03145 | -82.68030 | 8014 ft | 133 kts | 327° |
| 2026-05-04 23:14 | 29.03946 | -82.68547 | 8018 ft | 133 kts | 327° |
| 2026-05-04 23:14 | 29.04758 | -82.69070 | 8014 ft | 133 kts | 327° |
| 2026-05-04 23:14 | 29.05561 | -82.69589 | 8018 ft | 133 kts | 327° |
| 2026-05-04 23:15 | 29.06376 | -82.70114 | 8018 ft | 133 kts | 327° |
| 2026-05-04 23:15 | 29.07173 | -82.70630 | 8017 ft | 133 kts | 327° |
| 2026-05-04 23:15 | 29.07984 | -82.71153 | 8017 ft | 133 kts | 327° |
| 2026-05-04 23:15 | 29.08798 | -82.71678 | 8018 ft | 134 kts | 327° |
| 2026-05-04 23:16 | 29.09600 | -82.72196 | 8018 ft | 133 kts | 327° |
| 2026-05-04 23:16 | 29.10411 | -82.72721 | 8016 ft | 134 kts | 327° |
| 2026-05-04 23:16 | 29.11216 | -82.73240 | 8021 ft | 134 kts | 327° |
| 2026-05-04 23:16 | 29.12036 | -82.73770 | 8022 ft | 134 kts | 327° |
| 2026-05-04 23:17 | 29.12839 | -82.74289 | 8021 ft | 134 kts | 327° |
| 2026-05-04 23:17 | 29.13655 | -82.74817 | 8018 ft | 134 kts | 327° |
| 2026-05-04 23:17 | 29.14462 | -82.75338 | 8021 ft | 134 kts | 327° |
| 2026-05-04 23:17 | 29.15276 | -82.75865 | 8018 ft | 134 kts | 327° |
| 2026-05-04 23:18 | 29.16077 | -82.76383 | 8019 ft | 134 kts | 327° |
| 2026-05-04 23:18 | 29.16890 | -82.76909 | 8017 ft | 133 kts | 327° |
| 2026-05-04 23:18 | 29.17698 | -82.77432 | 8017 ft | 135 kts | 327° |
| 2026-05-04 23:18 | 29.18519 | -82.77964 | 8017 ft | 135 kts | 327° |
| 2026-05-04 23:19 | 29.19331 | -82.78489 | 8018 ft | 135 kts | 327° |
| 2026-05-04 23:19 | 29.20156 | -82.79023 | 8015 ft | 136 kts | 327° |
| 2026-05-04 23:19 | 29.20972 | -82.79551 | 8018 ft | 135 kts | 327° |
| 2026-05-04 23:19 | 29.21795 | -82.80084 | 8016 ft | 135 kts | 327° |
| 2026-05-04 23:20 | 29.22604 | -82.80608 | 8019 ft | 135 kts | 327° |
| 2026-05-04 23:20 | 29.23428 | -82.81142 | 8018 ft | 135 kts | 327° |
| 2026-05-04 23:20 | 29.24238 | -82.81667 | 8019 ft | 135 kts | 327° |
| 2026-05-04 23:20 | 29.25057 | -82.82197 | 8018 ft | 135 kts | 327° |
| 2026-05-04 23:21 | 29.25866 | -82.82723 | 8017 ft | 134 kts | 327° |
| 2026-05-04 23:21 | 29.26682 | -82.83251 | 8017 ft | 134 kts | 328° |
| 2026-05-04 23:21 | 29.27498 | -82.83780 | 8019 ft | 134 kts | 328° |
| 2026-05-04 23:21 | 29.28307 | -82.84305 | 8016 ft | 134 kts | 328° |
| 2026-05-04 23:22 | 29.29116 | -82.84831 | 8017 ft | 134 kts | 328° |
| 2026-05-04 23:22 | 29.29938 | -82.85363 | 8017 ft | 134 kts | 328° |
| 2026-05-04 23:22 | 29.30752 | -82.85891 | 8018 ft | 134 kts | 327° |
| 2026-05-04 23:22 | 29.31570 | -82.86422 | 8018 ft | 135 kts | 328° |
| 2026-05-04 23:23 | 29.32383 | -82.86950 | 8020 ft | 134 kts | 327° |
| 2026-05-04 23:23 | 29.33189 | -82.87473 | 8018 ft | 134 kts | 328° |
| 2026-05-04 23:23 | 29.34002 | -82.88002 | 8021 ft | 134 kts | 328° |
| 2026-05-04 23:23 | 29.34818 | -82.88532 | 8022 ft | 134 kts | 328° |
| 2026-05-04 23:24 | 29.35625 | -82.89056 | 8019 ft | 135 kts | 328° |
| 2026-05-04 23:24 | 29.36456 | -82.89597 | 8018 ft | 136 kts | 328° |
| 2026-05-04 23:24 | 29.37270 | -82.90124 | 8022 ft | 136 kts | 328° |
| 2026-05-04 23:24 | 29.38093 | -82.90659 | 8021 ft | 135 kts | 328° |
| 2026-05-04 23:25 | 29.38914 | -82.91194 | 8020 ft | 136 kts | 328° |
| 2026-05-04 23:25 | 29.39738 | -82.91730 | 8018 ft | 137 kts | 328° |
| 2026-05-04 23:25 | 29.40563 | -82.92266 | 8019 ft | 136 kts | 328° |
| 2026-05-04 23:25 | 29.41388 | -82.92803 | 8022 ft | 136 kts | 328° |
| 2026-05-04 23:26 | 29.42211 | -82.93338 | 8021 ft | 136 kts | 328° |
| 2026-05-04 23:26 | 29.43034 | -82.93873 | 8021 ft | 136 kts | 328° |
| 2026-05-04 23:26 | 29.43580 | -82.94229 | 8024 ft | 136 kts | 328° |
| 2026-05-04 23:26 | 29.44407 | -82.94768 | 8022 ft | 137 kts | 328° |
| 2026-05-04 23:27 | 29.45236 | -82.95306 | 8022 ft | 136 kts | 328° |
| 2026-05-04 23:27 | 29.46057 | -82.95843 | 8024 ft | 135 kts | 328° |
| 2026-05-04 23:27 | 29.46874 | -82.96374 | 8022 ft | 135 kts | 328° |
| 2026-05-04 23:27 | 29.47688 | -82.96905 | 8020 ft | 134 kts | 328° |
| 2026-05-04 23:28 | 29.48500 | -82.97433 | 8021 ft | 134 kts | 328° |
| 2026-05-04 23:28 | 29.49312 | -82.97962 | 8020 ft | 134 kts | 328° |
| 2026-05-04 23:28 | 29.50123 | -82.98492 | 8021 ft | 134 kts | 328° |
| 2026-05-04 23:28 | 29.50933 | -82.99020 | 8021 ft | 134 kts | 328° |
| 2026-05-04 23:29 | 29.51750 | -82.99553 | 8023 ft | 134 kts | 328° |
| 2026-05-04 23:29 | 29.52561 | -83.00081 | 8023 ft | 134 kts | 328° |
| 2026-05-04 23:29 | 29.53376 | -83.00613 | 8024 ft | 135 kts | 328° |
| 2026-05-04 23:29 | 29.54191 | -83.01143 | 8022 ft | 135 kts | 328° |
| 2026-05-04 23:30 | 29.55004 | -83.01676 | 8022 ft | 134 kts | 328° |
| 2026-05-04 23:30 | 29.55806 | -83.02199 | 8022 ft | 135 kts | 328° |
| 2026-05-04 23:30 | 29.56623 | -83.02732 | 8021 ft | 135 kts | 328° |
| 2026-05-04 23:30 | 29.57452 | -83.03273 | 8024 ft | 136 kts | 328° |
| 2026-05-04 23:31 | 29.58274 | -83.03811 | 8027 ft | 137 kts | 328° |
| 2026-05-04 23:31 | 29.59092 | -83.04344 | 8026 ft | 136 kts | 328° |
| 2026-05-04 23:31 | 29.59916 | -83.04882 | 8027 ft | 136 kts | 328° |
| 2026-05-04 23:31 | 29.60770 | -83.05362 | 8024 ft | 137 kts | 331° |
| 2026-05-04 23:32 | 29.61617 | -83.05859 | 8027 ft | 137 kts | 330° |
| 2026-05-04 23:32 | 29.62467 | -83.06355 | 8024 ft | 137 kts | 330° |
| 2026-05-04 23:32 | 29.63319 | -83.06850 | 8027 ft | 137 kts | 331° |
| 2026-05-04 23:32 | 29.64174 | -83.07346 | 8025 ft | 138 kts | 330° |
| 2026-05-04 23:33 | 29.65028 | -83.07841 | 8025 ft | 137 kts | 331° |
| 2026-05-04 23:33 | 29.65881 | -83.08334 | 8025 ft | 137 kts | 330° |
| 2026-05-04 23:33 | 29.66731 | -83.08828 | 8024 ft | 137 kts | 330° |
| 2026-05-04 23:33 | 29.67580 | -83.09320 | 8024 ft | 137 kts | 331° |
| 2026-05-04 23:34 | 29.68429 | -83.09811 | 8022 ft | 136 kts | 331° |
| 2026-05-04 23:34 | 29.69274 | -83.10301 | 8023 ft | 136 kts | 330° |
| 2026-05-04 23:34 | 29.70120 | -83.10792 | 8023 ft | 136 kts | 330° |
| 2026-05-04 23:34 | 29.70963 | -83.11282 | 8024 ft | 136 kts | 330° |
| 2026-05-04 23:35 | 29.71809 | -83.11771 | 8022 ft | 136 kts | 331° |
| 2026-05-04 23:35 | 29.72657 | -83.12263 | 8021 ft | 136 kts | 331° |
| 2026-05-04 23:35 | 29.73500 | -83.12753 | 8023 ft | 135 kts | 330° |
| 2026-05-04 23:35 | 29.74342 | -83.13242 | 8021 ft | 136 kts | 331° |
| 2026-05-04 23:36 | 29.75187 | -83.13732 | 8022 ft | 136 kts | 330° |
| 2026-05-04 23:36 | 29.76031 | -83.14223 | 8022 ft | 136 kts | 330° |
| 2026-05-04 23:36 | 29.76867 | -83.14708 | 8020 ft | 137 kts | 331° |
| 2026-05-04 23:36 | 29.77715 | -83.15200 | 8023 ft | 136 kts | 331° |
| 2026-05-04 23:37 | 29.78566 | -83.15694 | 8021 ft | 137 kts | 330° |
| 2026-05-04 23:37 | 29.79417 | -83.16189 | 8024 ft | 138 kts | 331° |
| 2026-05-04 23:37 | 29.80271 | -83.16685 | 8025 ft | 137 kts | 331° |
| 2026-05-04 23:37 | 29.81125 | -83.17180 | 8023 ft | 137 kts | 331° |
| 2026-05-04 23:38 | 29.81977 | -83.17677 | 8024 ft | 137 kts | 331° |
| 2026-05-04 23:38 | 29.82828 | -83.18172 | 8024 ft | 137 kts | 331° |
| 2026-05-04 23:38 | 29.83679 | -83.18666 | 8026 ft | 137 kts | 330° |
| 2026-05-04 23:38 | 29.84529 | -83.19161 | 8023 ft | 137 kts | 331° |
| 2026-05-04 23:39 | 29.85376 | -83.19654 | 8024 ft | 137 kts | 330° |
| 2026-05-04 23:39 | 29.86224 | -83.20147 | 8021 ft | 136 kts | 331° |
| 2026-05-04 23:39 | 29.87071 | -83.20640 | 8021 ft | 136 kts | 331° |
| 2026-05-04 23:39 | 29.87916 | -83.21133 | 8022 ft | 136 kts | 330° |
| 2026-05-04 23:40 | 29.88765 | -83.21627 | 8024 ft | 137 kts | 331° |
| 2026-05-04 23:40 | 29.89616 | -83.22123 | 8023 ft | 137 kts | 331° |
| 2026-05-04 23:40 | 29.90469 | -83.22619 | 8025 ft | 137 kts | 331° |
| 2026-05-04 23:40 | 29.91321 | -83.23116 | 8027 ft | 137 kts | 331° |
| 2026-05-04 23:41 | 29.92175 | -83.23614 | 8024 ft | 137 kts | 330° |
| 2026-05-04 23:41 | 29.93028 | -83.24110 | 8022 ft | 137 kts | 330° |
| 2026-05-04 23:41 | 29.93880 | -83.24607 | 8026 ft | 137 kts | 330° |
| 2026-05-04 23:41 | 29.94731 | -83.25104 | 8028 ft | 137 kts | 330° |
| 2026-05-04 23:42 | 29.95584 | -83.25601 | 8027 ft | 137 kts | 331° |
| 2026-05-04 23:42 | 29.96420 | -83.26089 | 8027 ft | 138 kts | 331° |
| 2026-05-04 23:42 | 29.97273 | -83.26586 | 8028 ft | 138 kts | 331° |
| 2026-05-04 23:42 | 29.98128 | -83.27085 | 8029 ft | 138 kts | 330° |
| 2026-05-04 23:43 | 29.98986 | -83.27586 | 8031 ft | 138 kts | 331° |
| 2026-05-04 23:43 | 29.99843 | -83.28086 | 8032 ft | 138 kts | 330° |
| 2026-05-04 23:43 | 30.00698 | -83.28585 | 8033 ft | 138 kts | 331° |
| 2026-05-04 23:43 | 30.01545 | -83.29080 | 8032 ft | 138 kts | 331° |
| 2026-05-04 23:44 | 30.02413 | -83.29587 | 8033 ft | 138 kts | 331° |
| 2026-05-04 23:44 | 30.03270 | -83.30088 | 8034 ft | 138 kts | 331° |
| 2026-05-04 23:44 | 30.04116 | -83.30582 | 8033 ft | 138 kts | 331° |
| 2026-05-04 23:44 | 30.04974 | -83.31084 | 8036 ft | 139 kts | 330° |
| 2026-05-04 23:45 | 30.05837 | -83.31588 | 8035 ft | 139 kts | 330° |
| 2026-05-04 23:45 | 30.06697 | -83.32090 | 8034 ft | 139 kts | 331° |
| 2026-05-04 23:45 | 30.07559 | -83.32594 | 8035 ft | 139 kts | 330° |
| 2026-05-04 23:45 | 30.08420 | -83.33098 | 8034 ft | 139 kts | 330° |
| 2026-05-04 23:46 | 30.09282 | -83.33602 | 8035 ft | 139 kts | 330° |
| 2026-05-04 23:46 | 30.10144 | -83.34106 | 8036 ft | 139 kts | 330° |
| 2026-05-04 23:46 | 30.11004 | -83.34610 | 8034 ft | 139 kts | 330° |
| 2026-05-04 23:46 | 30.11862 | -83.35113 | 8037 ft | 138 kts | 330° |
| 2026-05-04 23:47 | 30.12720 | -83.35614 | 8036 ft | 138 kts | 330° |
| 2026-05-04 23:47 | 30.13578 | -83.36116 | 8034 ft | 138 kts | 330° |
| 2026-05-04 23:47 | 30.14438 | -83.36621 | 8037 ft | 139 kts | 330° |
| 2026-05-04 23:47 | 30.15285 | -83.37117 | 8037 ft | 139 kts | 330° |
| 2026-05-04 23:48 | 30.16150 | -83.37625 | 8036 ft | 139 kts | 330° |
| 2026-05-04 23:48 | 30.17015 | -83.38130 | 8036 ft | 139 kts | 330° |
| 2026-05-04 23:48 | 30.17878 | -83.38636 | 8035 ft | 139 kts | 330° |
| 2026-05-04 23:48 | 30.18742 | -83.39143 | 8035 ft | 139 kts | 330° |
| 2026-05-04 23:49 | 30.19589 | -83.39640 | 8033 ft | 139 kts | 330° |
| 2026-05-04 23:49 | 30.20466 | -83.40156 | 8034 ft | 139 kts | 330° |
| 2026-05-04 23:49 | 30.21317 | -83.40654 | 8036 ft | 139 kts | 330° |
| 2026-05-04 23:49 | 30.22181 | -83.41160 | 8037 ft | 139 kts | 330° |
| 2026-05-04 23:50 | 30.23046 | -83.41667 | 8040 ft | 139 kts | 330° |
| 2026-05-04 23:50 | 30.23911 | -83.42176 | 8036 ft | 140 kts | 330° |
| 2026-05-04 23:50 | 30.24776 | -83.42683 | 8034 ft | 140 kts | 331° |
| 2026-05-04 23:50 | 30.25642 | -83.43192 | 8036 ft | 139 kts | 331° |
| 2026-05-04 23:51 | 30.26505 | -83.43698 | 8033 ft | 139 kts | 331° |
| 2026-05-04 23:51 | 30.27369 | -83.44206 | 8032 ft | 139 kts | 330° |
| 2026-05-04 23:51 | 30.28232 | -83.44714 | 8032 ft | 139 kts | 330° |
| 2026-05-04 23:51 | 30.29097 | -83.45223 | 8033 ft | 139 kts | 330° |
| 2026-05-04 23:52 | 30.29961 | -83.45730 | 8034 ft | 140 kts | 331° |
| 2026-05-04 23:52 | 30.30831 | -83.46240 | 8033 ft | 140 kts | 331° |
| 2026-05-04 23:52 | 30.31700 | -83.46751 | 8033 ft | 140 kts | 331° |
| 2026-05-04 23:52 | 30.32568 | -83.47263 | 8031 ft | 140 kts | 331° |
| 2026-05-04 23:53 | 30.33439 | -83.47775 | 8035 ft | 140 kts | 331° |
| 2026-05-04 23:53 | 30.34306 | -83.48285 | 8031 ft | 140 kts | 331° |
| 2026-05-04 23:53 | 30.35174 | -83.48796 | 8031 ft | 140 kts | 331° |
| 2026-05-04 23:53 | 30.36042 | -83.49307 | 8031 ft | 140 kts | 331° |
| 2026-05-04 23:54 | 30.36912 | -83.49819 | 8030 ft | 140 kts | 331° |
| 2026-05-04 23:54 | 30.37782 | -83.50330 | 8031 ft | 140 kts | 331° |
| 2026-05-04 23:54 | 30.38654 | -83.50845 | 8028 ft | 141 kts | 331° |
| 2026-05-04 23:54 | 30.39526 | -83.51359 | 8028 ft | 140 kts | 331° |
| 2026-05-04 23:55 | 30.40397 | -83.51872 | 8028 ft | 141 kts | 331° |
| 2026-05-04 23:55 | 30.41268 | -83.52386 | 8028 ft | 141 kts | 331° |
| 2026-05-04 23:55 | 30.43012 | -83.53413 | 8027 ft | 141 kts | 331° |
| 2026-05-04 23:56 | 30.43884 | -83.53927 | 8027 ft | 141 kts | 331° |
| 2026-05-04 23:56 | 30.44746 | -83.54435 | 8026 ft | 140 kts | 331° |
| 2026-05-04 23:56 | 30.45616 | -83.54949 | 8024 ft | 140 kts | 331° |
| 2026-05-04 23:56 | 30.46487 | -83.55463 | 8026 ft | 140 kts | 331° |
| 2026-05-04 23:57 | 30.47358 | -83.55978 | 8026 ft | 141 kts | 331° |
| 2026-05-04 23:57 | 30.48233 | -83.56493 | 8025 ft | 141 kts | 331° |
| 2026-05-04 23:57 | 30.49107 | -83.57010 | 8023 ft | 141 kts | 331° |
| 2026-05-04 23:57 | 30.49985 | -83.57528 | 8025 ft | 141 kts | 331° |
| 2026-05-04 23:58 | 30.50860 | -83.58045 | 8025 ft | 141 kts | 331° |
| 2026-05-04 23:58 | 30.51735 | -83.58561 | 8025 ft | 141 kts | 331° |
| 2026-05-04 23:58 | 30.52611 | -83.59080 | 8024 ft | 141 kts | 331° |
| 2026-05-04 23:58 | 30.53488 | -83.59598 | 8024 ft | 141 kts | 331° |
| 2026-05-04 23:59 | 30.54365 | -83.60116 | 8024 ft | 142 kts | 331° |
| 2026-05-04 23:59 | 30.55244 | -83.60636 | 8023 ft | 142 kts | 331° |
| 2026-05-04 23:59 | 30.56122 | -83.61156 | 8025 ft | 142 kts | 331° |
| 2026-05-04 23:59 | 30.57002 | -83.61675 | 8027 ft | 142 kts | 331° |
| 2026-05-05 00:00 | 30.57869 | -83.62189 | 8026 ft | 142 kts | 331° |
| 2026-05-05 00:00 | 30.58166 | -83.62364 | 8025 ft | 142 kts | 331° |
| 2026-05-05 00:00 | 30.59630 | -83.63231 | 8027 ft | 142 kts | 331° |
| 2026-05-05 00:00 | 30.60513 | -83.63754 | 8028 ft | 142 kts | 331° |
| 2026-05-05 00:01 | 30.61395 | -83.64275 | 8028 ft | 142 kts | 331° |
| 2026-05-05 00:01 | 30.62276 | -83.64798 | 8028 ft | 142 kts | 331° |
| 2026-05-05 00:01 | 30.63159 | -83.65320 | 8030 ft | 142 kts | 331° |
| 2026-05-05 00:01 | 30.64040 | -83.65842 | 8025 ft | 142 kts | 331° |
| 2026-05-05 00:02 | 30.64924 | -83.66366 | 8029 ft | 143 kts | 331° |
| 2026-05-05 00:02 | 30.65808 | -83.66890 | 8028 ft | 143 kts | 331° |
| 2026-05-05 00:02 | 30.66691 | -83.67414 | 8031 ft | 142 kts | 331° |
| 2026-05-05 00:02 | 30.67574 | -83.67937 | 8029 ft | 143 kts | 331° |
| 2026-05-05 00:03 | 30.68457 | -83.68461 | 8028 ft | 143 kts | 331° |
| 2026-05-05 00:03 | 30.69347 | -83.68989 | 8026 ft | 143 kts | 331° |
| 2026-05-05 00:03 | 30.70232 | -83.69514 | 8022 ft | 143 kts | 331° |
| 2026-05-05 00:03 | 30.71107 | -83.70033 | 8022 ft | 143 kts | 331° |
| 2026-05-05 00:04 | 30.71997 | -83.70561 | 8022 ft | 143 kts | 331° |
| 2026-05-05 00:04 | 30.72886 | -83.71089 | 8021 ft | 143 kts | 331° |
| 2026-05-05 00:04 | 30.73763 | -83.71610 | 8029 ft | 143 kts | 331° |
| 2026-05-05 00:04 | 30.74649 | -83.72136 | 8031 ft | 143 kts | 331° |
| 2026-05-05 00:05 | 30.75540 | -83.72666 | 8032 ft | 143 kts | 331° |
| 2026-05-05 00:05 | 30.76419 | -83.73187 | 8031 ft | 143 kts | 331° |
| 2026-05-05 00:05 | 30.77308 | -83.73716 | 8033 ft | 143 kts | 331° |
| 2026-05-05 00:05 | 30.78197 | -83.74244 | 8030 ft | 143 kts | 331° |
| 2026-05-05 00:06 | 30.79078 | -83.74768 | 8034 ft | 143 kts | 331° |
| 2026-05-05 00:06 | 30.79958 | -83.75291 | 8032 ft | 143 kts | 331° |
| 2026-05-05 00:06 | 30.80849 | -83.75821 | 8030 ft | 143 kts | 331° |
| 2026-05-05 00:06 | 30.81731 | -83.76347 | 8030 ft | 143 kts | 331° |
| 2026-05-05 00:07 | 30.82621 | -83.76875 | 8033 ft | 143 kts | 331° |
| 2026-05-05 00:07 | 30.83512 | -83.77406 | 8032 ft | 143 kts | 331° |
| 2026-05-05 00:07 | 30.84392 | -83.77931 | 8032 ft | 143 kts | 331° |
| 2026-05-05 00:07 | 30.85277 | -83.78457 | 8033 ft | 143 kts | 331° |
| 2026-05-05 00:08 | 30.86167 | -83.78987 | 8034 ft | 143 kts | 331° |
| 2026-05-05 00:08 | 30.86757 | -83.79338 | 8034 ft | 143 kts | 331° |
| 2026-05-05 00:08 | 30.87646 | -83.79868 | 8034 ft | 143 kts | 330° |
| 2026-05-05 00:08 | 30.88541 | -83.80402 | 8033 ft | 143 kts | 331° |
| 2026-05-05 00:09 | 30.89416 | -83.80923 | 8035 ft | 143 kts | 331° |
| 2026-05-05 00:09 | 30.90312 | -83.81457 | 8036 ft | 143 kts | 331° |
| 2026-05-05 00:09 | 30.91194 | -83.81983 | 8035 ft | 144 kts | 330° |
| 2026-05-05 00:09 | 30.92089 | -83.82516 | 8035 ft | 144 kts | 330° |
| 2026-05-05 00:10 | 30.92942 | -83.83026 | 8034 ft | 144 kts | 330° |
| 2026-05-05 00:10 | 30.93838 | -83.83560 | 8025 ft | 145 kts | 330° |
| 2026-05-05 00:10 | 30.94740 | -83.84098 | 7974 ft | 147 kts | 331° |
| 2026-05-05 00:10 | 30.95655 | -83.84644 | 7974 ft | 146 kts | 330° |
| 2026-05-05 00:11 | 30.96548 | -83.85178 | 7973 ft | 145 kts | 330° |
| 2026-05-05 00:11 | 30.97449 | -83.85715 | 7973 ft | 145 kts | 330° |
| 2026-05-05 00:11 | 30.98339 | -83.86247 | 7973 ft | 145 kts | 330° |
| 2026-05-05 00:11 | 30.99239 | -83.86785 | 7972 ft | 145 kts | 330° |
| 2026-05-05 00:12 | 31.00129 | -83.87316 | 7971 ft | 144 kts | 330° |
| 2026-05-05 00:12 | 31.01028 | -83.87853 | 7967 ft | 144 kts | 330° |
| 2026-05-05 00:12 | 31.01915 | -83.88384 | 7973 ft | 144 kts | 330° |
| 2026-05-05 00:12 | 31.02812 | -83.88920 | 7967 ft | 144 kts | 330° |
| 2026-05-05 00:13 | 31.03706 | -83.89454 | 7966 ft | 144 kts | 330° |
| 2026-05-05 00:13 | 31.04603 | -83.89991 | 7968 ft | 144 kts | 330° |
| 2026-05-05 00:13 | 31.05497 | -83.90525 | 7968 ft | 144 kts | 330° |
| 2026-05-05 00:13 | 31.06383 | -83.91057 | 7970 ft | 144 kts | 330° |
| 2026-05-05 00:14 | 31.07279 | -83.91592 | 7970 ft | 144 kts | 330° |
| 2026-05-05 00:14 | 31.08184 | -83.92135 | 7971 ft | 144 kts | 330° |
| 2026-05-05 00:14 | 31.09075 | -83.92667 | 7972 ft | 145 kts | 330° |
| 2026-05-05 00:14 | 31.09965 | -83.93201 | 7967 ft | 145 kts | 330° |
| 2026-05-05 00:15 | 31.10865 | -83.93739 | 7968 ft | 145 kts | 330° |
| 2026-05-05 00:15 | 31.11763 | -83.94278 | 7972 ft | 145 kts | 330° |
| 2026-05-05 00:15 | 31.12651 | -83.94810 | 7972 ft | 145 kts | 330° |
| 2026-05-05 00:15 | 31.13554 | -83.95351 | 7968 ft | 145 kts | 330° |
| 2026-05-05 00:16 | 31.14444 | -83.95885 | 7968 ft | 145 kts | 330° |
| 2026-05-05 00:16 | 31.15347 | -83.96427 | 7975 ft | 145 kts | 330° |
| 2026-05-05 00:16 | 31.16236 | -83.96960 | 7973 ft | 145 kts | 330° |
| 2026-05-05 00:16 | 31.17141 | -83.97502 | 7972 ft | 145 kts | 330° |
| 2026-05-05 00:17 | 31.18041 | -83.98042 | 7971 ft | 145 kts | 330° |
| 2026-05-05 00:17 | 31.18929 | -83.98575 | 7974 ft | 145 kts | 330° |
| 2026-05-05 00:17 | 31.19827 | -83.99115 | 7973 ft | 145 kts | 330° |
| 2026-05-05 00:17 | 31.20716 | -83.99648 | 7970 ft | 144 kts | 330° |
| 2026-05-05 00:18 | 31.21614 | -84.00188 | 7966 ft | 144 kts | 330° |
| 2026-05-05 00:18 | 31.22509 | -84.00725 | 7965 ft | 144 kts | 330° |
| 2026-05-05 00:18 | 31.23298 | -84.01199 | 7968 ft | 144 kts | 330° |
| 2026-05-05 00:18 | 31.24195 | -84.01738 | 7967 ft | 144 kts | 330° |
| 2026-05-05 00:19 | 31.25088 | -84.02275 | 7964 ft | 144 kts | 330° |
| 2026-05-05 00:19 | 31.25967 | -84.02804 | 7962 ft | 144 kts | 330° |
| 2026-05-05 00:19 | 31.26861 | -84.03341 | 7967 ft | 144 kts | 330° |
| 2026-05-05 00:19 | 31.27756 | -84.03879 | 7960 ft | 144 kts | 330° |
| 2026-05-05 00:20 | 31.28639 | -84.04411 | 7925 ft | 147 kts | 329° |
| 2026-05-05 00:20 | 31.29587 | -84.04983 | 7717 ft | 153 kts | 330° |
| 2026-05-05 00:20 | 31.30520 | -84.05541 | 7493 ft | 148 kts | 330° |
| 2026-05-05 00:20 | 31.31424 | -84.06086 | 7275 ft | 146 kts | 329° |
| 2026-05-05 00:21 | 31.32330 | -84.06632 | 7054 ft | 145 kts | 329° |
| 2026-05-05 00:21 | 31.33220 | -84.07169 | 6839 ft | 144 kts | 329° |
| 2026-05-05 00:21 | 31.34114 | -84.07706 | 6620 ft | 144 kts | 329° |
| 2026-05-05 00:21 | 31.34998 | -84.08240 | 6404 ft | 144 kts | 329° |
| 2026-05-05 00:22 | 31.35878 | -84.08771 | 6179 ft | 143 kts | 329° |
| 2026-05-05 00:22 | 31.36768 | -84.09307 | 5963 ft | 143 kts | 329° |
| 2026-05-05 00:22 | 31.37662 | -84.09846 | 5736 ft | 144 kts | 329° |
| 2026-05-05 00:22 | 31.38543 | -84.10377 | 5517 ft | 144 kts | 330° |
| 2026-05-05 00:23 | 31.39443 | -84.10920 | 5291 ft | 145 kts | 329° |
| 2026-05-05 00:23 | 31.40335 | -84.11459 | 5075 ft | 145 kts | 330° |
| 2026-05-05 00:23 | 31.41238 | -84.12003 | 4854 ft | 146 kts | 330° |
| 2026-05-05 00:23 | 31.42135 | -84.12545 | 4627 ft | 146 kts | 330° |
| 2026-05-05 00:24 | 31.43046 | -84.13091 | 4406 ft | 146 kts | 331° |
| 2026-05-05 00:24 | 31.43944 | -84.13623 | 4178 ft | 146 kts | 331° |
| 2026-05-05 00:24 | 31.44852 | -84.14170 | 3955 ft | 144 kts | 331° |
| 2026-05-05 00:24 | 31.45693 | -84.14757 | 3611 ft | 143 kts | 323° |
| 2026-05-05 00:25 | 31.46506 | -84.15427 | 3301 ft | 141 kts | 324° |
| 2026-05-05 00:25 | 31.47290 | -84.16051 | 2809 ft | 134 kts | 321° |
| 2026-05-05 00:25 | 31.47983 | -84.16741 | 2446 ft | 126 kts | 320° |
| 2026-05-05 00:25 | 31.48611 | -84.17349 | 2054 ft | 112 kts | 319° |
| 2026-05-05 00:26 | 31.49280 | -84.17819 | 1582 ft | 114 kts | 333° |
| 2026-05-05 00:26 | 31.49965 | -84.18209 | 1197 ft | 109 kts | 334° |
| 2026-05-05 00:26 | 31.50615 | -84.18546 | 844 ft | 99 kts | 339° |
| 2026-05-05 00:26 | 31.51270 | -84.18839 | 661 ft | 100 kts | 339° |
| 2026-05-05 00:27 | 31.51911 | -84.19107 | 428 ft | 95 kts | 341° |
| 2026-05-05 00:27 | 31.52545 | -84.19342 | 280 ft | 95 kts | 343° |
| 2026-05-05 00:27 | 31.53111 | -84.19554 | 198 ft | 72 kts | 336° |
| 2026-05-05 00:27 | 31.53466 | -84.19692 | 201 ft | 25 kts | 343° |
| 2026-05-05 00:28 | 31.53602 | -84.19744 | 196 ft | 17 kts | 343° |
| 2026-05-05 00:28 | 31.53659 | -84.19726 | 196 ft | 9 kts | 59° |
| 2026-05-05 00:28 | 31.53688 | -84.19626 | 196 ft | 4 kts | 67° |
| 2026-05-05 00:28 | 31.53703 | -84.19572 | 196 ft | 9 kts | 74° |
| 2026-05-05 00:29 | 31.53712 | -84.19487 | 196 ft | 12 kts | 96° |
| 2026-05-05 00:29 | 31.53685 | -84.19386 | 201 ft | 14 kts | 118° |
| 2026-05-05 00:29 | 31.53626 | -84.19296 | 199 ft | 15 kts | 127° |
| 2026-05-05 00:29 | 31.53571 | -84.19212 | 203 ft | 13 kts | 126° |
| 2026-05-05 00:30 | 31.53511 | -84.19123 | 196 ft | 14 kts | 131° |
| 2026-05-05 00:30 | 31.53447 | -84.19028 | 196 ft | 15 kts | 129° |
| 2026-05-05 00:30 | 31.53414 | -84.18979 | 203 ft | 5 kts | 125° |
| 2026-05-05 00:30 | 31.53386 | -84.18934 | 196 ft | 9 kts | 129° |
| 2026-05-05 00:31 | 31.53367 | -84.18885 | 196 ft | 7 kts | 51° |
| 2026-05-05 00:31 | 31.53422 | -84.18876 | 196 ft | 10 kts | 343° |
| 2026-05-05 00:31 | 31.53487 | -84.18895 | 197 ft | 6 kts | 28° |
| 2026-05-05 00:31 | 31.53526 | -84.18867 | 196 ft | 4 kts | 57° |
| 2026-05-05 00:32 | 31.53528 | -84.18858 | 196 ft | 0 kts | 86° |